Nearby METAR Reports

 

KTEB - Teterboro, New Jersey, USA
Distance from station: ENE 2mi, 4km
Updated: 05/23/2018 9:51pm
Clear
Clear
 Wind from W
Wind: W 7 mph , 11 km/h
Temperature: 73°F , 23°C
Dew Point: 50°F , 10°C
Humidity: 44%
Barometer: 29.98 inHg , 1015.2 hPa
Clouds: Clear
Visibility: 10 miles , 16 km
2018/05/24 01:51 KTEB 240151Z 28006KT 10SM CLR 23/10 A2998 RMK AO2 SLP152 T02280100
KNYC - Nyc/Central Park, New York, USA
Distance from station: SE 8mi, 13km
Updated: 05/23/2018 9:51pm
Clear
Clear
 Wind from WNW
Wind: WNW 3 mph , 6 km/h
Temperature: 75°F , 24°C
Dew Point: 48°F , 9°C
Humidity: 39%
Barometer: 30.02 inHg , 1016.6 hPa
Clouds: Clear
Visibility: 10 miles , 16 km
2018/05/24 01:51 KNYC 240151Z AUTO 29003KT 10SM CLR 24/09 A3002 RMK AO2 SLP156 T02390094 $
 
KCDW - Caldwell, New Jersey, USA
Distance from station: WNW 10mi, 17km
Updated: 12/31/1969 7:00pm
NOT Current
unable to load KCDW data RC=404 Not Found
unable to load KCDW data RC=404 Not Found
 
KLGA - Nyc/La Guardia, New York, USA
Distance from station: ESE 12mi, 19km
Updated: 05/23/2018 9:51pm
Few Clouds
Few Clouds
 Wind from WNW
Wind: WNW 16 mph , 26 km/h
Temperature: 79°F , 26°C
Dew Point: 48°F , 9°C
Humidity: 34%
Barometer: 29.98 inHg , 1015.2 hPa
Clouds: Few Clouds
Visibility: 10 miles , 16 km
Cloud details: Few Clouds 25000 ft
2018/05/24 01:51 KLGA 240151Z 30014KT 10SM FEW250 26/09 A2998 RMK AO2 SLP152 T02560094
 
KEWR - Newark, New Jersey, USA
Distance from station: SSW 12mi, 20km
Updated: 05/23/2018 9:51pm
Few Clouds
Few Clouds
 Wind from W
Wind: W 10 mph , 17 km/h
Temperature: 75°F , 24°C
Dew Point: 50°F , 10°C
Humidity: 41%
Barometer: 29.99 inHg , 1015.6 hPa
Clouds: Few Clouds
Visibility: 10 miles , 16 km
Cloud details: Few Clouds 25000 ft
2018/05/24 01:51 KEWR 240151Z 28009KT 10SM FEW250 24/10 A2999 RMK AO2 SLP156 T02390100
KMMU - Morristown Muni, New Jersey, USA
Distance from station: WSW 18mi, 29km
Updated: 05/23/2018 10:15pm
Clear
Clear
 Wind from calm
Wind: Calm
Temperature: 63°F , 17°C
Dew Point: 57°F , 14°C
Humidity: 83%
Barometer: 30.01 inHg , 1016.3 hPa
Clouds: Clear
Visibility: 10 miles , 16 km
2018/05/24 02:15 KMMU 240215Z AUTO 00000KT 10SM CLR 17/14 A3001 RMK AO2
 
KJFK - Nyc/Jfk Arpt, New York, USA
Distance from station: SE 23mi, 36km
Updated: 05/23/2018 9:51pm
Partly cloudy
Partly cloudy
 Wind from WNW
Wind: WNW 10 mph , 17 km/h
Temperature: 75°F , 24°C
Dew Point: 52°F , 11°C
Humidity: 44%
Barometer: 29.99 inHg , 1015.6 hPa
Clouds: Partly cloudy
Visibility: 10 miles , 16 km
Cloud details: Partly cloudy 25000 ft
2018/05/24 01:51 KJFK 240151Z 29009KT 10SM SCT250 24/11 A2999 RMK AO2 SLP156 T02440106
KHPN - White Plains, New York, USA
Distance from station: NE 25mi, 40km
Updated: 05/23/2018 9:56pm
Clear
Clear
 Wind from WNW
Wind: WNW 6 mph , 9 km/h
Temperature: 64°F , 18°C
Dew Point: 55°F , 13°C
Humidity: 73%
Barometer: 29.99 inHg , 1015.6 hPa
Clouds: Clear
Visibility: 10 miles , 16 km
2018/05/24 01:56 KHPN 240156Z 30005KT 10SM CLR 18/13 A2999 RMK AO2 SLP152 T01780133
 
KSMQ - Somerville, New Jersey, USA
Distance from station: WSW 34mi, 55km
Updated: 05/23/2018 9:53pm
Clear
Clear
 Wind from calm
Wind: Calm
Temperature: 63°F , 17°C
Dew Point: 57°F , 14°C
Humidity: 83%
Barometer: 30.00 inHg , 1015.9 hPa
Clouds: Clear
Visibility: 10 miles , 16 km
2018/05/24 01:53 KSMQ 240153Z AUTO 00000KT 10SM CLR 17/14 A3000 RMK AO2 SLP159 T01670144
K12N - Andover, New Jersey, USA
Distance from station: WNW 36mi, 57km
Updated: 05/23/2018 9:54pm

 Wind from calm
Wind: Calm
Temperature: 61°F , 16°C
Dew Point: 57°F , 14°C
Humidity: 88%
Barometer: 30.03 inHg , 1016.9 hPa
2018/05/24 01:54 K12N 240154Z AUTO 00000KT 16/14 A3003 RMK AO1 SLP166 T01560139
 
KFRG - Farmingdale, New York, USA
Distance from station: ESE 36mi, 58km
Updated: 05/23/2018 9:53pm

 Wind from W
Wind: W 5 mph , 7 km/h
Temperature: 72°F , 22°C
Dew Point: 54°F , 12°C
Humidity: 53%
Barometer: 29.98 inHg , 1015.2 hPa
Visibility: 10 miles , 16 km
2018/05/24 01:53 KFRG 240153Z 28004KT 10SM 22/12 A2998 RMK AO2 SLP151 T02170117 $
KFWN - Sussex, New Jersey, USA
Distance from station: NW 37mi, 60km
Updated: 05/23/2018 9:53pm
Clear
Clear
 Wind from calm
Wind: Calm
Temperature: 61°F , 16°C
Dew Point: 54°F , 12°C
Humidity: 77%
Barometer: 30.02 inHg , 1016.6 hPa
Clouds: Clear
Visibility: 10 miles , 16 km
2018/05/24 01:53 KFWN 240153Z AUTO 00000KT 10SM CLR 16/12 A3002 RMK AO2 SLP164 T01560122
 
KSWF - Newburgh/Stewart, New York, USA
Distance from station: 0 45mi, 72km
Updated: 05/23/2018 9:45pm
Clear
Clear
 Wind from WNW
Wind: WNW 6 mph , 9 km/h
Temperature: 68°F , 20°C
Dew Point: 50°F , 10°C
Humidity: 53%
Barometer: 30.01 inHg , 1016.3 hPa
Clouds: Clear
Visibility: 10 miles , 16 km
2018/05/24 01:45 KSWF 240145Z 29005KT 10SM SKC 20/10 A3001
KMGJ - Montgomery, New York, USA
Distance from station: NNW 47mi, 75km
Updated: 05/23/2018 9:54pm
Clear
Clear
 Wind from calm
Wind: Calm
Temperature: 63°F , 17°C
Dew Point: 54°F , 12°C
Humidity: 73%
Barometer: 30.00 inHg , 1015.9 hPa
Clouds: Clear
Visibility: 10 miles , 16 km
2018/05/24 01:54 KMGJ 240154Z AUTO 00000KT 10SM CLR 17/12 A3000 RMK AO2 SLP157 T01670117
 
KBLM - Belmar/Farmdale, New Jersey, USA
Distance from station: S 47mi, 76km
Updated: 05/23/2018 9:56pm
Clear
Clear
 Wind from SW
Wind: SW 6 mph , 9 km/h
Temperature: 68°F , 20°C
Dew Point: 57°F , 14°C
Humidity: 69%
Barometer: 30.02 inHg , 1016.6 hPa
Clouds: Clear
Visibility: 10 miles , 16 km
2018/05/24 01:56 KBLM 240156Z AUTO 23005KT 10SM CLR 20/14 A3002 RMK AO2 SLP170 T02000139
KDXR - Danbury, Connecticut, USA
Distance from station: NE 47mi, 76km
Updated: 12/31/1969 7:00pm
NOT Current
unable to load KDXR data RC=404 Not Found
unable to load KDXR data RC=404 Not Found
 
 
KISP - Islip, New York, USA
Distance from station: E 52mi, 83km
Updated: 05/23/2018 9:56pm
Few Clouds
Few Clouds
 Wind from W
Wind: W 5 mph , 7 km/h
Temperature: 70°F , 21°C
Dew Point: 55°F , 13°C
Humidity: 60%
Barometer: 29.97 inHg , 1014.9 hPa
Clouds: Few Clouds
Visibility: 10 miles , 16 km
Cloud details: Few Clouds 25000 ft
2018/05/24 01:56 KISP 240156Z 27004KT 10SM FEW250 21/13 A2997 RMK AO2 SLP148 T02060128 $
KBDR - Bridgeport, Connecticut, USA
Distance from station: ENE 54mi, 87km
Updated: 05/23/2018 9:52pm
Clear
Clear
 Wind from WSW
Wind: WSW 3 mph , 6 km/h
Temperature: 66°F , 19°C
Dew Point: 55°F , 13°C
Humidity: 68%
Barometer: 29.96 inHg , 1014.6 hPa
Clouds: Clear
Visibility: 10 miles , 16 km
2018/05/24 01:52 KBDR 240152Z 24003KT 10SM CLR 19/13 A2996 RMK AO2 SLP146 T01940133
 
KTTN - Trenton, New Jersey, USA
Distance from station: SW 55mi, 88km
Updated: 05/23/2018 9:53pm
Clear
Clear
 
Temperature: 73°F , 23°C
Dew Point: 55°F , 13°C
Humidity: 53%
Barometer: 30.02 inHg , 1016.6 hPa
Clouds: Clear
Visibility: 10 miles , 16 km
2018/05/24 01:53 KTTN 240153Z 10SM CLR 23/13 A3002 RMK AO2 SLP159 T02280128
KPOU - Poughkeepsie, New York, USA
Distance from station: N 55mi, 89km
Updated: 05/23/2018 9:53pm
Clear
Clear
 Wind from E
Wind: E 3 mph , 6 km/h
Temperature: 61°F , 16°C
Dew Point: 52°F , 11°C
Humidity: 72%
Barometer: 29.98 inHg , 1015.2 hPa
Clouds: Clear
Visibility: 10 miles , 16 km
2018/05/24 01:53 KPOU 240153Z AUTO 10003KT 10SM CLR 16/11 A2998 RMK AO2 SLP149 T01610111
 
KNEL - Lakehurst Nas, New Jersey, USA
Distance from station: SSW 59mi, 95km
Updated: 05/23/2018 9:55pm
Clear
Clear
 Wind from calm
Wind: Calm
Temperature: 68°F , 20°C
Dew Point: 59°F , 15°C
Humidity: 73%
Barometer: 29.95 inHg , 1014.2 hPa
Clouds: Clear
Visibility: 7 miles , 11 km
2018/05/24 01:55 KNEL 240155Z 00000KT 7SM CLR 20/15 A2995 RMK AO2A SLPNO WND DATA ESTMD ALSTG ESTMD T02020145 $
KWRI - Wrightst/Mcguire, New Jersey, USA
Distance from station: SSW 63mi, 102km
Updated: 12/31/1969 7:00pm
NOT Current
unable to load KWRI data RC=404 Not Found
unable to load KWRI data RC=404 Not Found
 
 
KHWV - Shirley, New York, USA
Distance from station: E 64mi, 103km
Updated: 05/23/2018 9:56pm
Clear
Clear
 Wind from calm
Wind: Calm
Temperature: 64°F , 18°C
Dew Point: 57°F , 14°C
Humidity: 78%
Barometer: 29.97 inHg , 1014.9 hPa
Clouds: Clear
Visibility: 10 miles , 16 km
2018/05/24 01:56 KHWV 240156Z AUTO 00000KT 10SM CLR 18/14 A2997 RMK AO2 SLP149 T01830139
KMJX - Toms River, New Jersey, USA
Distance from station: S 64mi, 104km
Updated: 05/23/2018 9:56pm
Clear
Clear
 Wind from calm
Wind: Calm
Temperature: 63°F , 17°C
Dew Point: 57°F , 14°C
Humidity: 83%
Barometer: 30.03 inHg , 1016.9 hPa
Clouds: Clear
Visibility: 10 miles , 16 km
2018/05/24 01:56 KMJX 240156Z AUTO 00000KT 10SM CLR 17/14 A3003 RMK AO2 SLP174 T01670139
 
KDYL - Doylestown, Pennsylvania, USA
Distance from station: SW 65mi, 104km
Updated: 12/31/1969 7:00pm
NOT Current
unable to load KDYL data RC=404 Not Found
unable to load KDYL data RC=404 Not Found
 
KOXC - Oxford/Waterbury, Connecticut, USA
Distance from station: NE 65mi, 105km
Updated: 05/23/2018 9:51pm
Clear
Clear
 Wind from calm
Wind: Calm
Temperature: 66°F , 19°C
Dew Point: 46°F , 8°C
Humidity: 49%
Barometer: 30.01 inHg , 1016.3 hPa
Clouds: Clear
Visibility: 10 miles , 16 km
2018/05/24 01:51 KOXC 240151Z AUTO 00000KT 10SM CLR 19/08 A3001 RMK AO2 SLP170 T01940078
 
KMSV - Monticello, New York, USA
Distance from station: NNW 69mi, 111km
Updated: 05/13/2018 9:55am
NOT Current
Overcast
Overcast
 Wind from SSE
Wind: SSE 9 mph , 15 km/h
Temperature: 52°F , 11°C
Dew Point: 45°F , 7°C
Humidity: 77%
Barometer: 30.15 inHg , 1021 hPa
Clouds: Overcast
Visibility: 15 miles , 24 km
Cloud details: Overcast 1000 ft
2018/05/13 13:55 KMSV 131355Z 15008KT 15SM OVC010 11/07 A3015
KHVN - New Haven/Tweed, Connecticut, USA
Distance from station: ENE 70mi, 112km
Updated: 05/23/2018 9:53pm
Clear
Clear
 Wind from calm
Wind: Calm
Temperature: 64°F , 18°C
Dew Point: 54°F , 12°C
Humidity: 68%
Barometer: 29.97 inHg , 1014.9 hPa
Clouds: Clear
Visibility: 10 miles , 16 km
2018/05/24 01:53 KHVN 240153Z 00000KT 10SM CLR 18/12 A2997 RMK AO2 SLP147 T01780117
 
KMPO - Mt. Pocono, Pennsylvania, USA
Distance from station: WNW 70mi, 113km
Updated: 05/23/2018 9:53pm
Clear
Clear
 Wind from NW
Wind: NW 9 mph , 15 km/h
Temperature: 61°F , 16°C
Dew Point: 50°F , 10°C
Humidity: 68%
Barometer: 30.08 inHg , 1018.6 hPa
Clouds: Clear
Visibility: 10 miles , 16 km
2018/05/24 01:53 KMPO 240153Z AUTO 31008KT 10SM CLR 16/10 A3008 RMK AO2 SLP181 T01560100
KPNE - Philadelphia/Ne, Pennsylvania, USA
Distance from station: SW 72mi, 116km
Updated: 05/23/2018 9:54pm
Clear
Clear
 Wind from W
Wind: W 3 mph , 6 km/h
Temperature: 72°F , 22°C
Dew Point: 54°F , 12°C
Humidity: 53%
Barometer: 30.04 inHg , 1017.3 hPa
Clouds: Clear
Visibility: 10 miles , 16 km
2018/05/24 01:54 KPNE 240154Z 27003KT 10SM CLR 22/12 A3004 RMK AO2 SLP171 T02220122
 
KABE - Allentown, Pennsylvania, USA
Distance from station: W 73mi, 117km
Updated: 05/23/2018 9:51pm
Clear
Clear
 Wind from SW
Wind: SW 3 mph , 6 km/h
Temperature: 64°F , 18°C
Dew Point: 52°F , 11°C
Humidity: 64%
Barometer: 30.04 inHg , 1017.3 hPa
Clouds: Clear
Visibility: 10 miles , 16 km
2018/05/24 01:51 KABE 240151Z 22003KT 10SM CLR 18/11 A3004 RMK AO2 SLP169 T01780111
KUKT - Quakertown Arp, Pennsylvania, USA
Distance from station: WSW 74mi, 119km
Updated: 05/23/2018 10:15pm
Clear
Clear
 Wind from calm
Wind: Calm
Temperature: 61°F , 16°C
Dew Point: 57°F , 14°C
Humidity: 88%
Barometer: 30.05 inHg , 1017.6 hPa
Clouds: Clear
Visibility: 10 miles , 16 km
2018/05/24 02:15 KUKT 240215Z AUTO 00000KT 10SM CLR 16/14 A3005 RMK A01
 
KVAY - Mount Holly, New Jersey, USA
Distance from station: SSW 75mi, 120km
Updated: 05/23/2018 9:54pm
Clear
Clear
 Wind from calm
Wind: Calm
Temperature: 64°F , 18°C
Dew Point: 57°F , 14°C
Humidity: 78%
Barometer: 30.03 inHg , 1016.9 hPa
Clouds: Clear
Visibility: 10 miles , 16 km
2018/05/24 01:54 KVAY 240154Z AUTO 00000KT 10SM CLR 18/14 A3003 RMK AO2 SLP167 T01830144
KXLL - Allentown Queen, Pennsylvania, USA
Distance from station: WSW 76mi, 122km
Updated: 05/23/2018 10:15pm
Clear
Clear
 Wind from SSW
Wind: SSW 3 mph , 6 km/h
Temperature: 64°F , 18°C
Dew Point: 54°F , 12°C
Humidity: 68%
Barometer: 30.06 inHg , 1017.9 hPa
Clouds: Clear
Visibility: 10 miles , 16 km
2018/05/24 02:15 KXLL 240215Z AUTO 20003KT 10SM CLR 18/12 A3006 RMK AO2
 
KFOK - Westhampton Beac, New York, USA
Distance from station: E 77mi, 124km
Updated: 05/23/2018 9:53pm
Clear
Clear
 Wind from calm
Wind: Calm
Temperature: 57°F , 14°C
Dew Point: 52°F , 11°C
Humidity: 82%
Barometer: 29.98 inHg , 1015.2 hPa
Clouds: Clear
Visibility: 10 miles , 16 km
2018/05/24 01:53 KFOK 240153Z 00000KT 10SM CLR 14/11 A2998 RMK AO2 SLP151 T01390106
KLOM - Philly Wings F, Pennsylvania, USA
Distance from station: SW 79mi, 128km
Updated: 05/23/2018 10:15pm
Clear
Clear
 Wind from calm
Wind: Calm
Temperature: 61°F , 16°C
Dew Point: 55°F , 13°C
Humidity: 83%
Barometer: 30.06 inHg , 1017.9 hPa
Clouds: Clear
Visibility: 10 miles , 16 km
2018/05/24 02:15 KLOM 240215Z AUTO 00000KT 10SM CLR 16/13 A3006 RMK AO1
 
KMMK - Meriden, Connecticut, USA
Distance from station: NE 80mi, 128km
Updated: 12/31/1969 7:00pm
NOT Current
unable to load KMMK data RC=404 Not Found
unable to load KMMK data RC=404 Not Found
 
KPTW - Pottstown, Pennsylvania, USA
Distance from station: WSW 88mi, 141km
Updated: 05/23/2018 9:54pm
Clear
Clear
 Wind from calm
Wind: Calm
Temperature: 64°F , 18°C
Dew Point: 54°F , 12°C
Humidity: 68%
Barometer: 30.06 inHg , 1017.9 hPa
Clouds: Clear
Visibility: 10 miles , 16 km
2018/05/24 01:54 KPTW 240154Z AUTO 00000KT 10SM CLR 18/12 A3006 RMK AO2 SLP176 T01780117 $
 
KSNC - Chester, Connecticut, USA
Distance from station: ENE 90mi, 146km
Updated: 05/23/2018 10:15pm
Clear
Clear
 Wind from NW
Wind: NW 14 mph , 22 km/h, Gust: 21 mph , 33 km/h
Temperature: 72°F , 22°C
Dew Point: 43°F , 6°C
Humidity: 36%
Barometer: 29.98 inHg , 1015.2 hPa
Clouds: Clear
Visibility: 10 miles , 16 km
2018/05/24 02:15 KSNC 240215Z AUTO 32012G18KT 10SM CLR 22/06 A2998 RMK AO2
KPHL - Philadelphia, Pennsylvania, USA
Distance from station: SW 91mi, 146km
Updated: 05/23/2018 9:54pm
Clear
Clear
 Wind from W
Wind: W 7 mph , 11 km/h
Temperature: 73°F , 23°C
Dew Point: 54°F , 12°C
Humidity: 50%
Barometer: 30.04 inHg , 1017.3 hPa
Clouds: Clear
Visibility: 10 miles , 16 km
2018/05/24 01:54 KPHL 240154Z 27006KT 10SM CLR 23/12 A3004 RMK AO2 SLP172 T02280117 VISNO W $
 
KAVP - Avoca/Wilkes B., Pennsylvania, USA
Distance from station: WNW 91mi, 147km
Updated: 05/23/2018 9:54pm
Clear
Clear
 Wind from ESE
Wind: ESE 5 mph , 7 km/h
Temperature: 61°F , 16°C
Dew Point: 55°F , 13°C
Humidity: 83%
Barometer: 30.06 inHg , 1017.9 hPa
Clouds: Clear
Visibility: 10 miles , 16 km
2018/05/24 01:54 KAVP 240154Z 12004KT 10SM CLR 16/13 A3006 RMK AO2 SLP175 T01560128
KHFD - Hartford/Brainar, Connecticut, USA
Distance from station: NE 96mi, 155km
Updated: 05/23/2018 9:53pm
Clear
Clear
 Wind from NW
Wind: NW 13 mph , 20 km/h, Gust: 20 mph , 31 km/h
Temperature: 73°F , 23°C
Dew Point: 46°F , 8°C
Humidity: 38%
Barometer: 29.96 inHg , 1014.6 hPa
Clouds: Clear
Visibility: 10 miles , 16 km
2018/05/24 01:53 KHFD 240153Z 31011G17KT 10SM CLR 23/08 A2996 RMK AO2 SLP144 T02330078
 
KHTO - East Hampton, New York, USA
Distance from station: E 96mi, 155km
Updated: 05/23/2018 10:15pm
Clear
Clear
 Wind from calm
Wind: Calm
Temperature: 63°F , 17°C
Dew Point: 52°F , 11°C
Humidity: 68%
Barometer: 29.96 inHg , 1014.6 hPa
Clouds: Clear
Visibility: 10 miles , 16 km
2018/05/24 02:15 KHTO 240215Z AUTO 00000KT 10SM CLR 17/11 A2996 RMK AO2 LTG DSNT NE T01700111
KACY - Atlantic City, New Jersey, USA
Distance from station: SSW 99mi, 160km
Updated: 05/23/2018 9:54pm
Clear
Clear
 Wind from W
Wind: W 5 mph , 7 km/h
Temperature: 64°F , 18°C
Dew Point: 61°F , 16°C
Humidity: 88%
Barometer: 30.03 inHg , 1016.9 hPa
Clouds: Clear
Visibility: 10 miles , 16 km
2018/05/24 01:54 KACY 240154Z 28004KT 10SM CLR 18/16 A3003 RMK AO2 SLP169 T01830156